TimeEDT,TemperatureF,Dew PointF,Humidity,Sea Level PressureIn,VisibilityMPH,Wind Direction,Wind SpeedMPH,Gust SpeedMPH,PrecipitationIn,Events,Conditions,WindDirDegrees,DateUTC
12:54 AM,35.1,28.9,78,29.53,-9999.0,North,13.8,24.2,N/A,,Unknown,360,2013-03-26 04:54:00
1:54 AM,33.1,30.0,89,29.54,-9999.0,North,13.8,25.3,0.02,,Unknown,360,2013-03-26 05:54:00
2:54 AM,32.0,30.0,92,29.56,-9999.0,North,12.7,21.9,0.03,,Unknown,360,2013-03-26 06:54:00
3:54 AM,32.0,30.9,96,29.56,-9999.0,North,8.1,-,N/A,,Unknown,350,2013-03-26 07:54:00
4:54 AM,32.0,28.0,85,29.57,-9999.0,NNW,10.4,-,N/A,,Unknown,340,2013-03-26 08:54:00
5:54 AM,32.0,26.1,79,29.60,-9999.0,NNW,10.4,18.4,N/A,,Unknown,340,2013-03-26 09:54:00
6:54 AM,32.0,26.1,79,29.63,-9999.0,NNW,11.5,18.4,N/A,,Unknown,340,2013-03-26 10:54:00
7:54 AM,33.1,25.0,72,29.65,-9999.0,North,10.4,20.7,N/A,,Unknown,360,2013-03-26 11:54:00
8:54 AM,35.1,24.1,64,29.67,-9999.0,NNW,10.4,-,N/A,,Unknown,330,2013-03-26 12:54:00
9:54 AM,37.9,23.0,55,29.68,-9999.0,North,6.9,17.3,N/A,,Unknown,350,2013-03-26 13:54:00
10:54 AM,42.1,21.0,43,29.68,-9999.0,North,10.4,19.6,N/A,,Unknown,360,2013-03-26 14:54:00
11:54 AM,44.1,19.9,38,29.69,-9999.0,NNW,10.4,18.4,N/A,,Unknown,340,2013-03-26 15:54:00
12:54 PM,42.1,23.0,47,29.70,-9999.0,WNW,10.4,16.1,N/A,,Unknown,300,2013-03-26 16:54:00
1:54 PM,44.1,24.1,45,29.69,-9999.0,WNW,13.8,20.7,N/A,,Unknown,290,2013-03-26 17:54:00
2:54 PM,44.1,23.0,43,29.69,-9999.0,NW,9.2,21.9,N/A,,Unknown,310,2013-03-26 18:54:00
3:54 PM,46.9,21.0,36,29.69,-9999.0,West,9.2,19.6,N/A,,Unknown,270,2013-03-26 19:54:00
4:54 PM,46.9,19.9,34,29.70,-9999.0,West,9.2,-,N/A,,Unknown,280,2013-03-26 20:54:00
5:54 PM,46.0,19.9,35,29.72,-9999.0,WNW,10.4,18.4,N/A,,Unknown,300,2013-03-26 21:54:00
6:54 PM,43.0,19.0,38,29.74,-9999.0,West,10.4,-,N/A,,Unknown,280,2013-03-26 22:54:00
7:54 PM,39.9,19.0,43,29.76,-9999.0,WNW,9.2,-,N/A,,Unknown,290,2013-03-26 23:54:00
8:54 PM,37.9,19.9,48,29.77,-9999.0,WNW,11.5,-,N/A,,Unknown,300,2013-03-27 00:54:00
9:54 PM,37.9,21.0,51,29.78,-9999.0,WNW,11.5,17.3,N/A,,Unknown,300,2013-03-27 01:54:00
10:54 PM,37.0,19.9,50,29.78,-9999.0,NW,10.4,-,N/A,,Unknown,310,2013-03-27 02:54:00
11:54 PM,36.0,19.0,50,29.79,-9999.0,NW,15.0,19.6,N/A,,Unknown,310,2013-03-27 03:54:00